sensor_id;sensor_type;location;lat;lon;timestamp;P1;P2;P0
61584;PMS7003;47479;53.810;18.308;2022-12-07T00:02:13;24;23;15
61584;PMS7003;47479;53.810;18.308;2022-12-07T00:07:14;29;25;15
61584;PMS7003;47479;53.810;18.308;2022-12-07T00:12:16;26;22;15
61584;PMS7003;47479;53.810;18.308;2022-12-07T00:17:17;25;22;14
61584;PMS7003;47479;53.810;18.308;2022-12-07T00:22:31;29;24;15
61584;PMS7003;47479;53.810;18.308;2022-12-07T00:27:33;26;24;15
61584;PMS7003;47479;53.810;18.308;2022-12-07T00:32:35;24;22;13
61584;PMS7003;47479;53.810;18.308;2022-12-07T00:37:36;25;21;14
61584;PMS7003;47479;53.810;18.308;2022-12-07T00:42:38;25;21;12
61584;PMS7003;47479;53.810;18.308;2022-12-07T00:47:39;25;22;12
61584;PMS7003;47479;53.810;18.308;2022-12-07T00:52:41;26;23;14
61584;PMS7003;47479;53.810;18.308;2022-12-07T00:57:44;20;20;15
61584;PMS7003;47479;53.810;18.308;2022-12-07T01:02:45;19;17;12
61584;PMS7003;47479;53.810;18.308;2022-12-07T01:07:47;22;20;14
61584;PMS7003;47479;53.810;18.308;2022-12-07T01:12:49;23;23;13
61584;PMS7003;47479;53.810;18.308;2022-12-07T01:17:51;23;18;13
61584;PMS7003;47479;53.810;18.308;2022-12-07T01:22:52;26;21;14
61584;PMS7003;47479;53.810;18.308;2022-12-07T01:27:54;18;18;13
61584;PMS7003;47479;53.810;18.308;2022-12-07T01:32:56;22;17;11
61584;PMS7003;47479;53.810;18.308;2022-12-07T01:37:58;18;17;12
61584;PMS7003;47479;53.810;18.308;2022-12-07T01:43:00;19;18;12
61584;PMS7003;47479;53.810;18.308;2022-12-07T01:48:01;21;20;11
61584;PMS7003;47479;53.810;18.308;2022-12-07T01:53:05;24;20;13
61584;PMS7003;47479;53.810;18.308;2022-12-07T01:58:17;17;15;11
61584;PMS7003;47479;53.810;18.308;2022-12-07T02:03:20;21;18;13
61584;PMS7003;47479;53.810;18.308;2022-12-07T02:08:22;19;16;11
61584;PMS7003;47479;53.810;18.308;2022-12-07T02:13:27;17;15;10
61584;PMS7003;47479;53.810;18.308;2022-12-07T02:24:10;24;19;9
61584;PMS7003;47479;53.810;18.308;2022-12-07T02:29:26;18;15;9
61584;PMS7003;47479;53.810;18.308;2022-12-07T02:34:40;20;15;9
61584;PMS7003;47479;53.810;18.308;2022-12-07T02:40:05;18;16;9
61584;PMS7003;47479;53.810;18.308;2022-12-07T02:45:06;12;12;8
61584;PMS7003;47479;53.810;18.308;2022-12-07T02:50:10;16;13;8
61584;PMS7003;47479;53.810;18.308;2022-12-07T02:55:12;14;11;8
61584;PMS7003;47479;53.810;18.308;2022-12-07T03:00:18;11;10;8
61584;PMS7003;47479;53.810;18.308;2022-12-07T03:15:49;9;9;5
61584;PMS7003;47479;53.810;18.308;2022-12-07T03:20:57;10;7;5
61584;PMS7003;47479;53.810;18.308;2022-12-07T03:26:00;8;8;5
61584;PMS7003;47479;53.810;18.308;2022-12-07T03:31:07;8;7;6
61584;PMS7003;47479;53.810;18.308;2022-12-07T03:36:25;7;7;5
61584;PMS7003;47479;53.810;18.308;2022-12-07T03:41:33;8;8;5
61584;PMS7003;47479;53.810;18.308;2022-12-07T03:46:42;5;4;2
61584;PMS7003;47479;53.810;18.308;2022-12-07T03:57:14;5;5;3
61584;PMS7003;47479;53.810;18.308;2022-12-07T04:02:17;4;3;2
61584;PMS7003;47479;53.810;18.308;2022-12-07T04:07:20;4;4;3
61584;PMS7003;47479;53.810;18.308;2022-12-07T04:12:22;5;5;3
61584;PMS7003;47479;53.810;18.308;2022-12-07T04:17:24;6;5;4
61584;PMS7003;47479;53.810;18.308;2022-12-07T04:22:26;7;5;3
61584;PMS7003;47479;53.810;18.308;2022-12-07T04:27:27;4;4;3
61584;PMS7003;47479;53.810;18.308;2022-12-07T04:32:29;6;5;3
61584;PMS7003;47479;53.810;18.308;2022-12-07T04:37:31;5;5;3
61584;PMS7003;47479;53.810;18.308;2022-12-07T04:42:33;3;3;3
61584;PMS7003;47479;53.810;18.308;2022-12-07T04:47:35;4;4;2
61584;PMS7003;47479;53.810;18.308;2022-12-07T04:52:37;4;4;2
61584;PMS7003;47479;53.810;18.308;2022-12-07T04:57:38;3;2;2
61584;PMS7003;47479;53.810;18.308;2022-12-07T05:02:40;5;5;3
61584;PMS7003;47479;53.810;18.308;2022-12-07T05:07:42;4;3;2
61584;PMS7003;47479;53.810;18.308;2022-12-07T05:12:44;2;2;2
61584;PMS7003;47479;53.810;18.308;2022-12-07T05:17:46;4;3;2
61584;PMS7003;47479;53.810;18.308;2022-12-07T05:23:02;3;3;2
61584;PMS7003;47479;53.810;18.308;2022-12-07T05:28:04;2;2;2
61584;PMS7003;47479;53.810;18.308;2022-12-07T05:33:07;2;2;2
61584;PMS7003;47479;53.810;18.308;2022-12-07T05:38:11;2;2;2
61584;PMS7003;47479;53.810;18.308;2022-12-07T05:43:11;3;2;2
61584;PMS7003;47479;53.810;18.308;2022-12-07T05:48:12;2;2;1
61584;PMS7003;47479;53.810;18.308;2022-12-07T05:53:14;2;2;2
61584;PMS7003;47479;53.810;18.308;2022-12-07T05:58:16;2;2;2
61584;PMS7003;47479;53.810;18.308;2022-12-07T06:03:56;3;3;2
61584;PMS7003;47479;53.810;18.308;2022-12-07T06:09:15;1;1;1
61584;PMS7003;47479;53.810;18.308;2022-12-07T06:17:55;1;1;1
61584;PMS7003;47479;53.810;18.308;2022-12-07T06:22:57;2;1;0
61584;PMS7003;47479;53.810;18.308;2022-12-07T06:27:58;2;1;1
61584;PMS7003;47479;53.810;18.308;2022-12-07T06:33:00;0;0;0
61584;PMS7003;47479;53.810;18.308;2022-12-07T06:38:02;0;0;0
61584;PMS7003;47479;53.810;18.308;2022-12-07T06:43:04;0;0;0
61584;PMS7003;47479;53.810;18.308;2022-12-07T06:48:05;0;0;0
61584;PMS7003;47479;53.810;18.308;2022-12-07T06:53:07;1;1;0
61584;PMS7003;47479;53.810;18.308;2022-12-07T06:58:10;2;2;2
61584;PMS7003;47479;53.810;18.308;2022-12-07T07:03:11;3;3;2
61584;PMS7003;47479;53.810;18.308;2022-12-07T07:08:14;3;3;2
61584;PMS7003;47479;53.810;18.308;2022-12-07T07:13:16;3;3;2
61584;PMS7003;47479;53.810;18.308;2022-12-07T07:18:17;6;5;4
61584;PMS7003;47479;53.810;18.308;2022-12-07T07:23:19;3;3;2
61584;PMS7003;47479;53.810;18.308;2022-12-07T07:28:22;3;3;2
61584;PMS7003;47479;53.810;18.308;2022-12-07T07:33:24;3;3;2
61584;PMS7003;47479;53.810;18.308;2022-12-07T07:38:43;5;4;3
61584;PMS7003;47479;53.810;18.308;2022-12-07T07:43:45;5;5;4
61584;PMS7003;47479;53.810;18.308;2022-12-07T07:48:47;8;8;5
61584;PMS7003;47479;53.810;18.308;2022-12-07T07:53:49;8;7;6
61584;PMS7003;47479;53.810;18.308;2022-12-07T07:58:53;8;7;6
61584;PMS7003;47479;53.810;18.308;2022-12-07T08:03:55;8;7;6
61584;PMS7003;47479;53.810;18.308;2022-12-07T08:08:57;8;8;6
61584;PMS7003;47479;53.810;18.308;2022-12-07T08:13:59;13;13;7
61584;PMS7003;47479;53.810;18.308;2022-12-07T08:19:01;9;8;7
61584;PMS7003;47479;53.810;18.308;2022-12-07T08:24:04;10;10;6
61584;PMS7003;47479;53.810;18.308;2022-12-07T08:29:06;11;9;6
61584;PMS7003;47479;53.810;18.308;2022-12-07T08:34:07;13;11;8
61584;PMS7003;47479;53.810;18.308;2022-12-07T08:39:11;13;13;7
61584;PMS7003;47479;53.810;18.308;2022-12-07T08:44:13;10;10;7
61584;PMS7003;47479;53.810;18.308;2022-12-07T08:49:19;11;10;7
61584;PMS7003;47479;53.810;18.308;2022-12-07T08:54:38;9;9;6
61584;PMS7003;47479;53.810;18.308;2022-12-07T08:59:41;9;9;6
61584;PMS7003;47479;53.810;18.308;2022-12-07T09:04:42;8;7;6
61584;PMS7003;47479;53.810;18.308;2022-12-07T09:09:44;10;9;7
61584;PMS7003;47479;53.810;18.308;2022-12-07T09:14:46;7;7;6
61584;PMS7003;47479;53.810;18.308;2022-12-07T09:19:47;8;8;7
61584;PMS7003;47479;53.810;18.308;2022-12-07T09:24:49;7;7;5
61584;PMS7003;47479;53.810;18.308;2022-12-07T09:29:50;9;7;6
61584;PMS7003;47479;53.810;18.308;2022-12-07T09:34:52;11;10;7
61584;PMS7003;47479;53.810;18.308;2022-12-07T09:39:54;8;8;7
61584;PMS7003;47479;53.810;18.308;2022-12-07T09:44:55;9;9;7
61584;PMS7003;47479;53.810;18.308;2022-12-07T09:50:06;10;8;7
61584;PMS7003;47479;53.810;18.308;2022-12-07T09:55:03;8;8;7
61584;PMS7003;47479;53.810;18.308;2022-12-07T10:00:09;8;8;6
61584;PMS7003;47479;53.810;18.308;2022-12-07T10:05:13;11;11;6
61584;PMS7003;47479;53.810;18.308;2022-12-07T10:10:17;9;9;7
61584;PMS7003;47479;53.810;18.308;2022-12-07T10:15:17;7;7;6
61584;PMS7003;47479;53.810;18.308;2022-12-07T10:20:29;10;9;7
61584;PMS7003;47479;53.810;18.308;2022-12-07T10:25:32;7;7;6
61584;PMS7003;47479;53.810;18.308;2022-12-07T10:30:48;9;9;8
61584;PMS7003;47479;53.810;18.308;2022-12-07T10:35:50;9;8;7
61584;PMS7003;47479;53.810;18.308;2022-12-07T10:41:05;8;8;6
61584;PMS7003;47479;53.810;18.308;2022-12-07T10:56:42;10;10;8
61584;PMS7003;47479;53.810;18.308;2022-12-07T11:01:51;8;8;6
61584;PMS7003;47479;53.810;18.308;2022-12-07T11:17:48;9;8;7
61584;PMS7003;47479;53.810;18.308;2022-12-07T11:23:03;9;8;6
61584;PMS7003;47479;53.810;18.308;2022-12-07T11:33:46;12;10;8
61584;PMS7003;47479;53.810;18.308;2022-12-07T11:38:54;12;12;8
61584;PMS7003;47479;53.810;18.308;2022-12-07T11:43:58;12;9;6
61584;PMS7003;47479;53.810;18.308;2022-12-07T11:49:10;10;10;8
61584;PMS7003;47479;53.810;18.308;2022-12-07T11:54:18;9;8;6
61584;PMS7003;47479;53.810;18.308;2022-12-07T11:59:36;12;12;8
61584;PMS7003;47479;53.810;18.308;2022-12-07T12:20:21;11;11;7
61584;PMS7003;47479;53.810;18.308;2022-12-07T12:25:42;11;8;6
61584;PMS7003;47479;53.810;18.308;2022-12-07T12:30:39;11;10;7
61584;PMS7003;47479;53.810;18.308;2022-12-07T12:35:41;12;12;8
61584;PMS7003;47479;53.810;18.308;2022-12-07T12:40:43;12;12;8
61584;PMS7003;47479;53.810;18.308;2022-12-07T12:45:45;11;9;7
61584;PMS7003;47479;53.810;18.308;2022-12-07T12:50:47;15;14;10
61584;PMS7003;47479;53.810;18.308;2022-12-07T12:56:14;15;15;11
61584;PMS7003;47479;53.810;18.308;2022-12-07T13:06:40;11;11;8
61584;PMS7003;47479;53.810;18.308;2022-12-07T13:11:43;17;14;11
61584;PMS7003;47479;53.810;18.308;2022-12-07T13:16:46;15;14;11
61584;PMS7003;47479;53.810;18.308;2022-12-07T13:21:48;15;15;10
61584;PMS7003;47479;53.810;18.308;2022-12-07T13:26:51;12;11;8
61584;PMS7003;47479;53.810;18.308;2022-12-07T13:31:54;11;11;8
61584;PMS7003;47479;53.810;18.308;2022-12-07T13:37:19;11;11;8
61584;PMS7003;47479;53.810;18.308;2022-12-07T13:42:31;14;14;7
61584;PMS7003;47479;53.810;18.308;2022-12-07T13:52:43;9;9;6
61584;PMS7003;47479;53.810;18.308;2022-12-07T13:57:41;9;9;7
61584;PMS7003;47479;53.810;18.308;2022-12-07T14:03:02;11;11;7
61584;PMS7003;47479;53.810;18.308;2022-12-07T14:13:31;10;9;7
61584;PMS7003;47479;53.810;18.308;2022-12-07T14:18:37;18;16;11
61584;PMS7003;47479;53.810;18.308;2022-12-07T14:23:42;12;10;5
61584;PMS7003;47479;53.810;18.308;2022-12-07T14:28:45;11;11;7
61584;PMS7003;47479;53.810;18.308;2022-12-07T14:33:47;12;11;7
61584;PMS7003;47479;53.810;18.308;2022-12-07T14:38:49;7;7;5
61584;PMS7003;47479;53.810;18.308;2022-12-07T14:43:50;11;8;7
61584;PMS7003;47479;53.810;18.308;2022-12-07T14:48:52;14;10;6
61584;PMS7003;47479;53.810;18.308;2022-12-07T14:53:54;11;10;6
61584;PMS7003;47479;53.810;18.308;2022-12-07T14:58:56;8;8;7
61584;PMS7003;47479;53.810;18.308;2022-12-07T15:03:58;7;7;5
61584;PMS7003;47479;53.810;18.308;2022-12-07T15:09:00;10;7;6
61584;PMS7003;47479;53.810;18.308;2022-12-07T15:14:02;7;6;5
61584;PMS7003;47479;53.810;18.308;2022-12-07T15:19:13;6;6;5
61584;PMS7003;47479;53.810;18.308;2022-12-07T15:24:29;7;7;4
61584;PMS7003;47479;53.810;18.308;2022-12-07T15:29:31;8;7;5
61584;PMS7003;47479;53.810;18.308;2022-12-07T15:34:33;9;8;6
61584;PMS7003;47479;53.810;18.308;2022-12-07T15:39:35;7;7;5
61584;PMS7003;47479;53.810;18.308;2022-12-07T15:44:38;6;6;4
61584;PMS7003;47479;53.810;18.308;2022-12-07T15:50:05;8;8;4
61584;PMS7003;47479;53.810;18.308;2022-12-07T15:55:08;7;6;5
61584;PMS7003;47479;53.810;18.308;2022-12-07T16:00:11;9;7;6
61584;PMS7003;47479;53.810;18.308;2022-12-07T16:05:13;5;5;3
61584;PMS7003;47479;53.810;18.308;2022-12-07T16:10:15;7;7;5
61584;PMS7003;47479;53.810;18.308;2022-12-07T16:15:17;5;5;4
61584;PMS7003;47479;53.810;18.308;2022-12-07T16:20:36;6;6;3
61584;PMS7003;47479;53.810;18.308;2022-12-07T16:25:37;9;7;5
61584;PMS7003;47479;53.810;18.308;2022-12-07T16:30:39;5;5;3
61584;PMS7003;47479;53.810;18.308;2022-12-07T16:35:41;4;4;3
61584;PMS7003;47479;53.810;18.308;2022-12-07T16:40:43;6;5;4
61584;PMS7003;47479;53.810;18.308;2022-12-07T16:45:48;7;4;3
61584;PMS7003;47479;53.810;18.308;2022-12-07T16:50:48;6;5;4
61584;PMS7003;47479;53.810;18.308;2022-12-07T16:55:51;6;6;4
61584;PMS7003;47479;53.810;18.308;2022-12-07T17:00:53;6;6;5
61584;PMS7003;47479;53.810;18.308;2022-12-07T17:05:54;6;6;3
61584;PMS7003;47479;53.810;18.308;2022-12-07T17:10:56;7;6;6
61584;PMS7003;47479;53.810;18.308;2022-12-07T17:16:00;7;7;5
61584;PMS7003;47479;53.810;18.308;2022-12-07T17:21:03;4;4;3
61584;PMS7003;47479;53.810;18.308;2022-12-07T17:26:06;8;6;4
61584;PMS7003;47479;53.810;18.308;2022-12-07T17:31:10;6;6;4
61584;PMS7003;47479;53.810;18.308;2022-12-07T17:36:31;8;8;6
61584;PMS7003;47479;53.810;18.308;2022-12-07T17:41:33;6;5;3
61584;PMS7003;47479;53.810;18.308;2022-12-07T17:47:13;9;9;6
61584;PMS7003;47479;53.810;18.308;2022-12-07T17:52:16;10;6;5
61584;PMS7003;47479;53.810;18.308;2022-12-07T17:57:57;7;7;5
61584;PMS7003;47479;53.810;18.308;2022-12-07T18:03:09;3;3;3
61584;PMS7003;47479;53.810;18.308;2022-12-07T18:08:11;6;6;4
61584;PMS7003;47479;53.810;18.308;2022-12-07T18:13:13;6;5;3
61584;PMS7003;47479;53.810;18.308;2022-12-07T18:18:37;6;6;5
61584;PMS7003;47479;53.810;18.308;2022-12-07T18:23:40;7;6;4
61584;PMS7003;47479;53.810;18.308;2022-12-07T18:28:43;6;6;5
61584;PMS7003;47479;53.810;18.308;2022-12-07T18:33:46;5;5;4
61584;PMS7003;47479;53.810;18.308;2022-12-07T18:38:49;6;6;3
61584;PMS7003;47479;53.810;18.308;2022-12-07T18:43:51;3;3;3
61584;PMS7003;47479;53.810;18.308;2022-12-07T18:48:53;5;5;3
61584;PMS7003;47479;53.810;18.308;2022-12-07T18:53:57;6;6;3
61584;PMS7003;47479;53.810;18.308;2022-12-07T18:59:16;6;6;4
61584;PMS7003;47479;53.810;18.308;2022-12-07T19:04:45;6;4;3
61584;PMS7003;47479;53.810;18.308;2022-12-07T19:09:47;5;4;4
61584;PMS7003;47479;53.810;18.308;2022-12-07T19:14:49;6;5;3
61584;PMS7003;47479;53.810;18.308;2022-12-07T19:19:50;6;5;4
61584;PMS7003;47479;53.810;18.308;2022-12-07T19:24:52;6;5;4
61584;PMS7003;47479;53.810;18.308;2022-12-07T19:29:54;3;3;2
61584;PMS7003;47479;53.810;18.308;2022-12-07T19:34:56;4;4;4
61584;PMS7003;47479;53.810;18.308;2022-12-07T19:39:58;4;4;3
61584;PMS7003;47479;53.810;18.308;2022-12-07T19:45:01;6;3;3
61584;PMS7003;47479;53.810;18.308;2022-12-07T19:50:03;3;3;3
61584;PMS7003;47479;53.810;18.308;2022-12-07T19:55:22;6;4;3
61584;PMS7003;47479;53.810;18.308;2022-12-07T20:00:23;3;3;3
61584;PMS7003;47479;53.810;18.308;2022-12-07T20:05:26;5;3;3
61584;PMS7003;47479;53.810;18.308;2022-12-07T20:10:28;4;3;3
61584;PMS7003;47479;53.810;18.308;2022-12-07T20:15:30;4;3;3
61584;PMS7003;47479;53.810;18.308;2022-12-07T20:20:31;3;3;3
61584;PMS7003;47479;53.810;18.308;2022-12-07T20:25:35;4;3;2
61584;PMS7003;47479;53.810;18.308;2022-12-07T20:30:44;4;3;2
61584;PMS7003;47479;53.810;18.308;2022-12-07T20:35:49;4;4;3
61584;PMS7003;47479;53.810;18.308;2022-12-07T20:40:51;3;3;3
61584;PMS7003;47479;53.810;18.308;2022-12-07T20:45:53;4;4;3
61584;PMS7003;47479;53.810;18.308;2022-12-07T20:51:03;5;4;3
61584;PMS7003;47479;53.810;18.308;2022-12-07T20:55:59;4;3;3
61584;PMS7003;47479;53.810;18.308;2022-12-07T21:01:01;43;33;22
61584;PMS7003;47479;53.810;18.308;2022-12-07T21:06:03;3;3;3
61584;PMS7003;47479;53.810;18.308;2022-12-07T21:11:17;2;2;2
61584;PMS7003;47479;53.810;18.308;2022-12-07T21:16:20;3;3;2
61584;PMS7003;47479;53.810;18.308;2022-12-07T21:21:23;3;3;2
61584;PMS7003;47479;53.810;18.308;2022-12-07T21:26:25;3;2;1
61584;PMS7003;47479;53.810;18.308;2022-12-07T21:31:27;2;2;1
61584;PMS7003;47479;53.810;18.308;2022-12-07T21:36:31;2;2;1
61584;PMS7003;47479;53.810;18.308;2022-12-07T21:41:33;2;2;1
61584;PMS7003;47479;53.810;18.308;2022-12-07T21:46:36;2;2;1
61584;PMS7003;47479;53.810;18.308;2022-12-07T21:51:39;3;3;2
61584;PMS7003;47479;53.810;18.308;2022-12-07T21:56:42;3;3;2
61584;PMS7003;47479;53.810;18.308;2022-12-07T22:01:45;2;2;1
61584;PMS7003;47479;53.810;18.308;2022-12-07T22:06:48;2;1;1
61584;PMS7003;47479;53.810;18.308;2022-12-07T22:11:51;2;1;1
61584;PMS7003;47479;53.810;18.308;2022-12-07T22:16:52;2;1;1
61584;PMS7003;47479;53.810;18.308;2022-12-07T22:21:54;2;1;1
61584;PMS7003;47479;53.810;18.308;2022-12-07T22:27:10;1;1;1
61584;PMS7003;47479;53.810;18.308;2022-12-07T22:32:12;3;3;1
61584;PMS7003;47479;53.810;18.308;2022-12-07T22:37:14;2;1;0
61584;PMS7003;47479;53.810;18.308;2022-12-07T22:42:15;1;1;1
61584;PMS7003;47479;53.810;18.308;2022-12-07T22:47:17;1;1;1
61584;PMS7003;47479;53.810;18.308;2022-12-07T22:52:18;1;1;0
61584;PMS7003;47479;53.810;18.308;2022-12-07T22:57:20;1;1;1
61584;PMS7003;47479;53.810;18.308;2022-12-07T23:02:22;2;2;1
61584;PMS7003;47479;53.810;18.308;2022-12-07T23:07:24;2;2;1
61584;PMS7003;47479;53.810;18.308;2022-12-07T23:12:25;3;2;1
61584;PMS7003;47479;53.810;18.308;2022-12-07T23:18:05;1;1;0
61584;PMS7003;47479;53.810;18.308;2022-12-07T23:23:17;1;1;1
61584;PMS7003;47479;53.810;18.308;2022-12-07T23:28:19;3;2;1
61584;PMS7003;47479;53.810;18.308;2022-12-07T23:33:21;0;0;0
61584;PMS7003;47479;53.810;18.308;2022-12-07T23:38:24;1;1;0
61584;PMS7003;47479;53.810;18.308;2022-12-07T23:43:25;0;0;0
61584;PMS7003;47479;53.810;18.308;2022-12-07T23:48:28;3;2;1
61584;PMS7003;47479;53.810;18.308;2022-12-07T23:53:33;1;1;1
61584;PMS7003;47479;53.810;18.308;2022-12-07T23:58:35;1;1;1
